sensor_id;sensor_type;location;lat;lon;timestamp;P1;durP1;ratioP1;P2;durP2;ratioP2
43652;SDS011;29249;56.078;92.850;2022-07-04T00:01:38;8.15;;;4.13;;
43652;SDS011;29249;56.078;92.850;2022-07-04T00:04:03;6.03;;;3.60;;
43652;SDS011;29249;56.078;92.850;2022-07-04T00:06:29;5.70;;;4.38;;
43652;SDS011;29249;56.078;92.850;2022-07-04T00:08:55;9.20;;;4.65;;
43652;SDS011;29249;56.078;92.850;2022-07-04T00:11:21;6.38;;;4.15;;
43652;SDS011;29249;56.078;92.850;2022-07-04T00:13:47;8.60;;;4.03;;
43652;SDS011;29249;56.078;92.850;2022-07-04T00:16:12;9.13;;;4.15;;
43652;SDS011;29249;56.078;92.850;2022-07-04T00:18:38;5.68;;;4.32;;
43652;SDS011;29249;56.078;92.850;2022-07-04T00:21:04;6.70;;;4.10;;
43652;SDS011;29249;56.078;92.850;2022-07-04T00:23:30;6.22;;;3.55;;
43652;SDS011;29249;56.078;92.850;2022-07-04T00:25:56;5.57;;;3.70;;
43652;SDS011;29249;56.078;92.850;2022-07-04T00:28:21;4.28;;;3.45;;
43652;SDS011;29249;56.078;92.850;2022-07-04T00:30:47;3.85;;;3.03;;
43652;SDS011;29249;56.078;92.850;2022-07-04T00:33:13;5.18;;;3.63;;
43652;SDS011;29249;56.078;92.850;2022-07-04T00:35:39;5.28;;;3.55;;
43652;SDS011;29249;56.078;92.850;2022-07-04T00:38:05;5.47;;;3.30;;
43652;SDS011;29249;56.078;92.850;2022-07-04T00:40:31;3.35;;;3.05;;
43652;SDS011;29249;56.078;92.850;2022-07-04T00:43:01;4.07;;;3.67;;
43652;SDS011;29249;56.078;92.850;2022-07-04T00:45:28;7.55;;;4.55;;
43652;SDS011;29249;56.078;92.850;2022-07-04T00:47:54;6.07;;;3.42;;
43652;SDS011;29249;56.078;92.850;2022-07-04T00:50:20;5.13;;;4.10;;
43652;SDS011;29249;56.078;92.850;2022-07-04T00:52:46;5.60;;;4.20;;
43652;SDS011;29249;56.078;92.850;2022-07-04T00:55:12;6.13;;;4.13;;
43652;SDS011;29249;56.078;92.850;2022-07-04T00:57:40;7.43;;;3.78;;
43652;SDS011;29249;56.078;92.850;2022-07-04T01:00:06;6.85;;;4.15;;
43652;SDS011;29249;56.078;92.850;2022-07-04T01:02:32;9.43;;;4.65;;
43652;SDS011;29249;56.078;92.850;2022-07-04T01:04:58;11.75;;;5.25;;
43652;SDS011;29249;56.078;92.850;2022-07-04T01:07:24;10.68;;;3.90;;
43652;SDS011;29249;56.078;92.850;2022-07-04T01:09:49;5.80;;;4.47;;
43652;SDS011;29249;56.078;92.850;2022-07-04T01:12:25;7.95;;;3.80;;
43652;SDS011;29249;56.078;92.850;2022-07-04T01:14:55;7.22;;;3.55;;
43652;SDS011;29249;56.078;92.850;2022-07-04T01:17:21;6.95;;;3.45;;
43652;SDS011;29249;56.078;92.850;2022-07-04T01:19:47;8.32;;;3.50;;
43652;SDS011;29249;56.078;92.850;2022-07-04T01:22:13;5.10;;;3.58;;
43652;SDS011;29249;56.078;92.850;2022-07-04T01:24:39;8.73;;;4.10;;
43652;SDS011;29249;56.078;92.850;2022-07-04T01:27:05;5.10;;;4.22;;
43652;SDS011;29249;56.078;92.850;2022-07-04T01:29:31;7.32;;;3.92;;
43652;SDS011;29249;56.078;92.850;2022-07-04T01:32:02;10.70;;;4.72;;
43652;SDS011;29249;56.078;92.850;2022-07-04T01:34:30;13.40;;;4.07;;
43652;SDS011;29249;56.078;92.850;2022-07-04T01:36:58;5.30;;;3.67;;
43652;SDS011;29249;56.078;92.850;2022-07-04T01:39:24;7.03;;;3.50;;
43652;SDS011;29249;56.078;92.850;2022-07-04T01:41:50;8.75;;;4.30;;
43652;SDS011;29249;56.078;92.850;2022-07-04T01:44:15;7.93;;;3.38;;
43652;SDS011;29249;56.078;92.850;2022-07-04T01:46:41;4.57;;;2.45;;
43652;SDS011;29249;56.078;92.850;2022-07-04T01:49:07;4.22;;;2.80;;
43652;SDS011;29249;56.078;92.850;2022-07-04T01:51:33;5.82;;;2.60;;
43652;SDS011;29249;56.078;92.850;2022-07-04T01:53:58;10.25;;;2.55;;
43652;SDS011;29249;56.078;92.850;2022-07-04T01:56:24;10.43;;;3.35;;
43652;SDS011;29249;56.078;92.850;2022-07-04T01:58:50;8.63;;;3.42;;
43652;SDS011;29249;56.078;92.850;2022-07-04T02:01:16;7.10;;;2.72;;
43652;SDS011;29249;56.078;92.850;2022-07-04T02:03:42;5.22;;;2.80;;
43652;SDS011;29249;56.078;92.850;2022-07-04T02:06:08;7.95;;;3.00;;
43652;SDS011;29249;56.078;92.850;2022-07-04T02:08:34;7.00;;;2.90;;
43652;SDS011;29249;56.078;92.850;2022-07-04T02:10:59;6.13;;;3.60;;
43652;SDS011;29249;56.078;92.850;2022-07-04T02:13:25;8.05;;;3.10;;
43652;SDS011;29249;56.078;92.850;2022-07-04T02:15:51;6.50;;;2.90;;
43652;SDS011;29249;56.078;92.850;2022-07-04T02:18:17;6.93;;;2.70;;
43652;SDS011;29249;56.078;92.850;2022-07-04T02:20:42;5.78;;;2.65;;
43652;SDS011;29249;56.078;92.850;2022-07-04T02:23:08;3.95;;;2.70;;
43652;SDS011;29249;56.078;92.850;2022-07-04T02:25:34;8.32;;;2.83;;
43652;SDS011;29249;56.078;92.850;2022-07-04T02:28:00;4.97;;;2.35;;
43652;SDS011;29249;56.078;92.850;2022-07-04T02:30:26;3.95;;;2.40;;
43652;SDS011;29249;56.078;92.850;2022-07-04T02:32:52;8.68;;;3.58;;
43652;SDS011;29249;56.078;92.850;2022-07-04T02:35:17;5.57;;;2.40;;
43652;SDS011;29249;56.078;92.850;2022-07-04T02:37:43;3.38;;;2.45;;
43652;SDS011;29249;56.078;92.850;2022-07-04T02:40:09;10.10;;;3.35;;
43652;SDS011;29249;56.078;92.850;2022-07-04T02:42:35;6.72;;;3.00;;
43652;SDS011;29249;56.078;92.850;2022-07-04T02:45:02;4.50;;;2.67;;
43652;SDS011;29249;56.078;92.850;2022-07-04T02:47:29;5.18;;;3.22;;
43652;SDS011;29249;56.078;92.850;2022-07-04T02:49:55;5.75;;;2.97;;
43652;SDS011;29249;56.078;92.850;2022-07-04T02:52:21;8.63;;;3.58;;
43652;SDS011;29249;56.078;92.850;2022-07-04T02:54:47;9.43;;;3.45;;
43652;SDS011;29249;56.078;92.850;2022-07-04T02:57:13;6.25;;;2.78;;
43652;SDS011;29249;56.078;92.850;2022-07-04T02:59:39;4.50;;;2.53;;
43652;SDS011;29249;56.078;92.850;2022-07-04T03:02:05;3.35;;;2.55;;
43652;SDS011;29249;56.078;92.850;2022-07-04T03:04:30;4.60;;;2.83;;
43652;SDS011;29249;56.078;92.850;2022-07-04T03:06:56;9.18;;;3.15;;
43652;SDS011;29249;56.078;92.850;2022-07-04T03:09:22;11.98;;;4.00;;
43652;SDS011;29249;56.078;92.850;2022-07-04T03:11:48;5.22;;;3.08;;
43652;SDS011;29249;56.078;92.850;2022-07-04T03:14:14;4.35;;;2.15;;
43652;SDS011;29249;56.078;92.850;2022-07-04T03:16:40;3.30;;;2.53;;
43652;SDS011;29249;56.078;92.850;2022-07-04T03:19:06;2.90;;;2.40;;
43652;SDS011;29249;56.078;92.850;2022-07-04T03:21:32;8.95;;;3.60;;
43652;SDS011;29249;56.078;92.850;2022-07-04T03:23:57;5.63;;;3.03;;
43652;SDS011;29249;56.078;92.850;2022-07-04T03:26:27;3.92;;;2.50;;
43652;SDS011;29249;56.078;92.850;2022-07-04T03:28:54;8.20;;;2.53;;
43652;SDS011;29249;56.078;92.850;2022-07-04T03:31:20;7.00;;;3.47;;
43652;SDS011;29249;56.078;92.850;2022-07-04T03:33:47;3.45;;;2.67;;
43652;SDS011;29249;56.078;92.850;2022-07-04T03:36:13;3.25;;;2.08;;
43652;SDS011;29249;56.078;92.850;2022-07-04T03:38:38;4.35;;;2.20;;
43652;SDS011;29249;56.078;92.850;2022-07-04T03:41:04;2.30;;;1.77;;
43652;SDS011;29249;56.078;92.850;2022-07-04T03:43:30;4.00;;;1.77;;
43652;SDS011;29249;56.078;92.850;2022-07-04T03:45:56;5.65;;;2.30;;
43652;SDS011;29249;56.078;92.850;2022-07-04T03:48:22;5.25;;;2.38;;
43652;SDS011;29249;56.078;92.850;2022-07-04T03:50:48;2.05;;;1.73;;
43652;SDS011;29249;56.078;92.850;2022-07-04T03:53:14;2.83;;;2.00;;
43652;SDS011;29249;56.078;92.850;2022-07-04T03:55:39;3.58;;;1.95;;
43652;SDS011;29249;56.078;92.850;2022-07-04T03:58:05;2.45;;;1.85;;
43652;SDS011;29249;56.078;92.850;2022-07-04T04:00:31;4.53;;;2.58;;
43652;SDS011;29249;56.078;92.850;2022-07-04T04:02:58;4.20;;;1.85;;
43652;SDS011;29249;56.078;92.850;2022-07-04T04:05:24;5.25;;;1.90;;
43652;SDS011;29249;56.078;92.850;2022-07-04T04:07:50;7.82;;;1.90;;
43652;SDS011;29249;56.078;92.850;2022-07-04T04:10:16;4.75;;;1.75;;
43652;SDS011;29249;56.078;92.850;2022-07-04T04:12:42;9.80;;;2.40;;
43652;SDS011;29249;56.078;92.850;2022-07-04T04:15:08;4.70;;;2.35;;
43652;SDS011;29249;56.078;92.850;2022-07-04T04:17:34;9.35;;;2.40;;
43652;SDS011;29249;56.078;92.850;2022-07-04T04:20:00;2.83;;;1.70;;
43652;SDS011;29249;56.078;92.850;2022-07-04T04:22:29;3.45;;;1.73;;
43652;SDS011;29249;56.078;92.850;2022-07-04T04:24:55;4.05;;;1.88;;
43652;SDS011;29249;56.078;92.850;2022-07-04T04:27:21;5.22;;;2.20;;
43652;SDS011;29249;56.078;92.850;2022-07-04T04:29:46;4.60;;;2.80;;
43652;SDS011;29249;56.078;92.850;2022-07-04T04:32:12;4.13;;;1.70;;
43652;SDS011;29249;56.078;92.850;2022-07-04T04:34:38;11.13;;;2.50;;
43652;SDS011;29249;56.078;92.850;2022-07-04T04:37:04;4.05;;;2.10;;
43652;SDS011;29249;56.078;92.850;2022-07-04T04:39:30;4.75;;;2.50;;
43652;SDS011;29249;56.078;92.850;2022-07-04T04:41:55;4.25;;;2.20;;
43652;SDS011;29249;56.078;92.850;2022-07-04T04:44:21;6.00;;;2.35;;
43652;SDS011;29249;56.078;92.850;2022-07-04T04:46:47;4.85;;;1.98;;
43652;SDS011;29249;56.078;92.850;2022-07-04T04:49:13;6.28;;;2.00;;
43652;SDS011;29249;56.078;92.850;2022-07-04T04:51:39;1.90;;;1.70;;
43652;SDS011;29249;56.078;92.850;2022-07-04T04:54:04;9.00;;;2.35;;
43652;SDS011;29249;56.078;92.850;2022-07-04T04:56:30;2.03;;;1.70;;
43652;SDS011;29249;56.078;92.850;2022-07-04T04:58:56;4.57;;;1.80;;
43652;SDS011;29249;56.078;92.850;2022-07-04T05:01:22;2.50;;;1.70;;
43652;SDS011;29249;56.078;92.850;2022-07-04T05:03:48;6.90;;;1.95;;
43652;SDS011;29249;56.078;92.850;2022-07-04T05:06:14;9.75;;;2.45;;
43652;SDS011;29249;56.078;92.850;2022-07-04T05:08:40;4.07;;;2.30;;
43652;SDS011;29249;56.078;92.850;2022-07-04T05:11:06;4.10;;;3.08;;
43652;SDS011;29249;56.078;92.850;2022-07-04T05:13:31;3.35;;;1.92;;
43652;SDS011;29249;56.078;92.850;2022-07-04T05:15:58;3.15;;;2.10;;
43652;SDS011;29249;56.078;92.850;2022-07-04T05:18:24;4.28;;;1.92;;
43652;SDS011;29249;56.078;92.850;2022-07-04T05:20:50;3.50;;;2.20;;
43652;SDS011;29249;56.078;92.850;2022-07-04T05:23:15;4.30;;;1.85;;
43652;SDS011;29249;56.078;92.850;2022-07-04T05:25:41;2.47;;;2.15;;
43652;SDS011;29249;56.078;92.850;2022-07-04T05:28:07;6.05;;;2.72;;
43652;SDS011;29249;56.078;92.850;2022-07-04T05:30:33;3.78;;;1.80;;
43652;SDS011;29249;56.078;92.850;2022-07-04T05:32:59;3.22;;;2.20;;
43652;SDS011;29249;56.078;92.850;2022-07-04T05:35:24;2.78;;;2.15;;
43652;SDS011;29249;56.078;92.850;2022-07-04T05:37:50;2.40;;;1.98;;
43652;SDS011;29249;56.078;92.850;2022-07-04T05:40:16;3.20;;;1.80;;
43652;SDS011;29249;56.078;92.850;2022-07-04T05:42:42;2.33;;;1.83;;
43652;SDS011;29249;56.078;92.850;2022-07-04T05:45:08;3.95;;;2.00;;
43652;SDS011;29249;56.078;92.850;2022-07-04T05:47:34;4.55;;;2.03;;
43652;SDS011;29249;56.078;92.850;2022-07-04T05:50:00;4.70;;;1.73;;
43652;SDS011;29249;56.078;92.850;2022-07-04T05:52:26;3.60;;;2.00;;
43652;SDS011;29249;56.078;92.850;2022-07-04T05:54:51;2.78;;;1.95;;
43652;SDS011;29249;56.078;92.850;2022-07-04T05:57:17;2.33;;;1.77;;
43652;SDS011;29249;56.078;92.850;2022-07-04T05:59:43;3.40;;;2.15;;
43652;SDS011;29249;56.078;92.850;2022-07-04T06:02:09;2.33;;;1.80;;
43652;SDS011;29249;56.078;92.850;2022-07-04T06:04:35;2.00;;;1.65;;
43652;SDS011;29249;56.078;92.850;2022-07-04T06:07:01;3.15;;;1.50;;
43652;SDS011;29249;56.078;92.850;2022-07-04T06:09:26;6.47;;;1.80;;
43652;SDS011;29249;56.078;92.850;2022-07-04T06:11:52;2.65;;;1.80;;
43652;SDS011;29249;56.078;92.850;2022-07-04T06:14:18;1.75;;;1.42;;
43652;SDS011;29249;56.078;92.850;2022-07-04T06:16:44;1.98;;;1.58;;
43652;SDS011;29249;56.078;92.850;2022-07-04T06:19:10;3.38;;;1.75;;
43652;SDS011;29249;56.078;92.850;2022-07-04T06:21:35;1.88;;;1.40;;
43652;SDS011;29249;56.078;92.850;2022-07-04T06:24:01;2.58;;;1.95;;
43652;SDS011;29249;56.078;92.850;2022-07-04T06:26:27;2.20;;;1.70;;
43652;SDS011;29249;56.078;92.850;2022-07-04T06:28:53;2.45;;;1.45;;
43652;SDS011;29249;56.078;92.850;2022-07-04T06:31:19;2.90;;;1.88;;
43652;SDS011;29249;56.078;92.850;2022-07-04T06:33:45;2.78;;;1.67;;
43652;SDS011;29249;56.078;92.850;2022-07-04T06:36:13;1.50;;;1.33;;
43652;SDS011;29249;56.078;92.850;2022-07-04T06:38:39;2.00;;;1.67;;
43652;SDS011;29249;56.078;92.850;2022-07-04T06:41:05;3.38;;;1.60;;
43652;SDS011;29249;56.078;92.850;2022-07-04T06:43:31;3.17;;;1.80;;
43652;SDS011;29249;56.078;92.850;2022-07-04T06:45:56;4.82;;;1.80;;
43652;SDS011;29249;56.078;92.850;2022-07-04T06:48:22;4.10;;;2.00;;
43652;SDS011;29249;56.078;92.850;2022-07-04T06:50:48;2.33;;;1.92;;
43652;SDS011;29249;56.078;92.850;2022-07-04T06:53:14;6.57;;;2.03;;
43652;SDS011;29249;56.078;92.850;2022-07-04T06:55:40;3.38;;;2.35;;
43652;SDS011;29249;56.078;92.850;2022-07-04T06:58:07;4.82;;;2.33;;
43652;SDS011;29249;56.078;92.850;2022-07-04T07:00:34;5.78;;;2.20;;
43652;SDS011;29249;56.078;92.850;2022-07-04T07:03:01;2.90;;;1.77;;
43652;SDS011;29249;56.078;92.850;2022-07-04T07:05:28;2.50;;;1.92;;
43652;SDS011;29249;56.078;92.850;2022-07-04T07:07:55;1.90;;;1.70;;
43652;SDS011;29249;56.078;92.850;2022-07-04T07:10:21;1.83;;;1.60;;
43652;SDS011;29249;56.078;92.850;2022-07-04T07:12:47;3.83;;;1.63;;
43652;SDS011;29249;56.078;92.850;2022-07-04T07:15:13;2.50;;;1.52;;
43652;SDS011;29249;56.078;92.850;2022-07-04T07:17:39;2.35;;;1.42;;
43652;SDS011;29249;56.078;92.850;2022-07-04T07:20:06;8.52;;;1.70;;
43652;SDS011;29249;56.078;92.850;2022-07-04T07:22:32;1.80;;;1.60;;
43652;SDS011;29249;56.078;92.850;2022-07-04T07:24:58;2.92;;;1.70;;
43652;SDS011;29249;56.078;92.850;2022-07-04T07:27:24;2.08;;;1.80;;
43652;SDS011;29249;56.078;92.850;2022-07-04T07:29:50;2.38;;;1.50;;
43652;SDS011;29249;56.078;92.850;2022-07-04T07:32:16;3.47;;;1.85;;
43652;SDS011;29249;56.078;92.850;2022-07-04T07:34:42;3.35;;;1.73;;
43652;SDS011;29249;56.078;92.850;2022-07-04T07:37:08;3.03;;;1.98;;
43652;SDS011;29249;56.078;92.850;2022-07-04T07:39:34;3.00;;;2.00;;
43652;SDS011;29249;56.078;92.850;2022-07-04T07:42:00;4.45;;;1.83;;
43652;SDS011;29249;56.078;92.850;2022-07-04T07:44:26;8.95;;;1.83;;
43652;SDS011;29249;56.078;92.850;2022-07-04T07:46:51;3.20;;;1.48;;
43652;SDS011;29249;56.078;92.850;2022-07-04T07:49:17;2.05;;;1.67;;
43652;SDS011;29249;56.078;92.850;2022-07-04T07:51:43;3.10;;;2.10;;
43652;SDS011;29249;56.078;92.850;2022-07-04T07:54:09;3.15;;;2.47;;
43652;SDS011;29249;56.078;92.850;2022-07-04T07:56:35;2.45;;;2.05;;
43652;SDS011;29249;56.078;92.850;2022-07-04T07:59:01;3.35;;;2.13;;
43652;SDS011;29249;56.078;92.850;2022-07-04T08:01:27;2.47;;;1.98;;
43652;SDS011;29249;56.078;92.850;2022-07-04T08:03:53;2.10;;;1.90;;
43652;SDS011;29249;56.078;92.850;2022-07-04T08:06:19;2.42;;;1.95;;
43652;SDS011;29249;56.078;92.850;2022-07-04T08:08:45;2.75;;;1.73;;
43652;SDS011;29249;56.078;92.850;2022-07-04T08:11:11;2.13;;;1.92;;
43652;SDS011;29249;56.078;92.850;2022-07-04T08:13:37;2.55;;;1.75;;
43652;SDS011;29249;56.078;92.850;2022-07-04T08:16:05;5.85;;;2.33;;
43652;SDS011;29249;56.078;92.850;2022-07-04T08:18:32;2.70;;;2.10;;
43652;SDS011;29249;56.078;92.850;2022-07-04T08:20:58;7.18;;;2.13;;
43652;SDS011;29249;56.078;92.850;2022-07-04T08:23:25;3.88;;;1.50;;
43652;SDS011;29249;56.078;92.850;2022-07-04T08:25:51;2.97;;;1.48;;
43652;SDS011;29249;56.078;92.850;2022-07-04T08:28:17;3.42;;;1.98;;
43652;SDS011;29249;56.078;92.850;2022-07-04T08:30:43;2.47;;;1.38;;
43652;SDS011;29249;56.078;92.850;2022-07-04T08:33:08;5.07;;;1.65;;
43652;SDS011;29249;56.078;92.850;2022-07-04T08:35:34;2.42;;;1.90;;
43652;SDS011;29249;56.078;92.850;2022-07-04T08:38:00;2.92;;;1.58;;
43652;SDS011;29249;56.078;92.850;2022-07-04T08:40:26;2.40;;;1.80;;
43652;SDS011;29249;56.078;92.850;2022-07-04T08:42:53;3.85;;;1.98;;
43652;SDS011;29249;56.078;92.850;2022-07-04T08:45:28;4.00;;;1.80;;
43652;SDS011;29249;56.078;92.850;2022-07-04T08:47:59;3.03;;;1.70;;
43652;SDS011;29249;56.078;92.850;2022-07-04T08:50:34;2.72;;;1.50;;
43652;SDS011;29249;56.078;92.850;2022-07-04T08:53:22;2.58;;;2.20;;
43652;SDS011;29249;56.078;92.850;2022-07-04T08:55:53;4.93;;;2.05;;
43652;SDS011;29249;56.078;92.850;2022-07-04T08:58:21;3.10;;;1.42;;
43652;SDS011;29249;56.078;92.850;2022-07-04T09:00:47;3.72;;;1.50;;
43652;SDS011;29249;56.078;92.850;2022-07-04T09:03:15;2.08;;;1.50;;
43652;SDS011;29249;56.078;92.850;2022-07-04T09:05:41;3.33;;;2.25;;
43652;SDS011;29249;56.078;92.850;2022-07-04T09:08:06;2.35;;;1.63;;
43652;SDS011;29249;56.078;92.850;2022-07-04T09:10:32;2.20;;;1.80;;
43652;SDS011;29249;56.078;92.850;2022-07-04T09:13:00;1.77;;;1.42;;
43652;SDS011;29249;56.078;92.850;2022-07-04T09:15:27;2.00;;;1.80;;
43652;SDS011;29249;56.078;92.850;2022-07-04T09:17:52;2.05;;;1.40;;
43652;SDS011;29249;56.078;92.850;2022-07-04T09:20:20;2.88;;;1.35;;
43652;SDS011;29249;56.078;92.850;2022-07-04T09:22:48;2.78;;;1.40;;
43652;SDS011;29249;56.078;92.850;2022-07-04T09:25:15;1.85;;;1.50;;
43652;SDS011;29249;56.078;92.850;2022-07-04T09:27:43;4.50;;;2.97;;
43652;SDS011;29249;56.078;92.850;2022-07-04T09:30:11;2.53;;;1.75;;
43652;SDS011;29249;56.078;92.850;2022-07-04T09:32:45;2.30;;;1.38;;
43652;SDS011;29249;56.078;92.850;2022-07-04T09:35:13;4.03;;;1.67;;
43652;SDS011;29249;56.078;92.850;2022-07-04T09:37:44;3.00;;;1.40;;
43652;SDS011;29249;56.078;92.850;2022-07-04T09:40:21;2.78;;;1.42;;
43652;SDS011;29249;56.078;92.850;2022-07-04T09:42:57;2.92;;;1.70;;
43652;SDS011;29249;56.078;92.850;2022-07-04T09:45:24;2.83;;;1.23;;
43652;SDS011;29249;56.078;92.850;2022-07-04T09:47:55;2.22;;;1.70;;
43652;SDS011;29249;56.078;92.850;2022-07-04T09:50:23;1.38;;;1.27;;
43652;SDS011;29249;56.078;92.850;2022-07-04T09:57:59;3.15;;;1.70;;
43652;SDS011;29249;56.078;92.850;2022-07-04T10:00:40;1.63;;;1.33;;
43652;SDS011;29249;56.078;92.850;2022-07-04T10:03:20;2.42;;;1.20;;
43652;SDS011;29249;56.078;92.850;2022-07-04T10:06:01;3.85;;;1.58;;
43652;SDS011;29249;56.078;92.850;2022-07-04T10:08:40;1.85;;;1.30;;
43652;SDS011;29249;56.078;92.850;2022-07-04T10:11:07;2.70;;;1.73;;
43652;SDS011;29249;56.078;92.850;2022-07-04T10:13:34;2.08;;;1.10;;
43652;SDS011;29249;56.078;92.850;2022-07-04T10:16:00;4.38;;;1.52;;
43652;SDS011;29249;56.078;92.850;2022-07-04T10:18:26;1.60;;;1.33;;
43652;SDS011;29249;56.078;92.850;2022-07-04T10:20:53;1.50;;;1.15;;
43652;SDS011;29249;56.078;92.850;2022-07-04T10:23:21;1.75;;;1.20;;
43652;SDS011;29249;56.078;92.850;2022-07-04T10:25:49;1.90;;;0.82;;
43652;SDS011;29249;56.078;92.850;2022-07-04T10:28:18;2.60;;;1.30;;
43652;SDS011;29249;56.078;92.850;2022-07-04T10:30:45;2.58;;;1.30;;
43652;SDS011;29249;56.078;92.850;2022-07-04T10:33:14;1.55;;;1.17;;
43652;SDS011;29249;56.078;92.850;2022-07-04T10:35:57;1.83;;;1.10;;
43652;SDS011;29249;56.078;92.850;2022-07-04T10:38:26;1.98;;;1.02;;
43652;SDS011;29249;56.078;92.850;2022-07-04T10:40:54;4.40;;;2.53;;
43652;SDS011;29249;56.078;92.850;2022-07-04T10:48:55;2.30;;;1.30;;
43652;SDS011;29249;56.078;92.850;2022-07-04T10:54:09;2.35;;;1.17;;
43652;SDS011;29249;56.078;92.850;2022-07-04T10:56:38;2.30;;;1.40;;
43652;SDS011;29249;56.078;92.850;2022-07-04T10:59:21;1.55;;;1.13;;
43652;SDS011;29249;56.078;92.850;2022-07-04T11:01:51;2.55;;;1.48;;
43652;SDS011;29249;56.078;92.850;2022-07-04T11:04:57;2.60;;;1.40;;
43652;SDS011;29249;56.078;92.850;2022-07-04T11:17:53;3.15;;;1.35;;
43652;SDS011;29249;56.078;92.850;2022-07-04T11:20:22;1.75;;;1.05;;
43652;SDS011;29249;56.078;92.850;2022-07-04T11:22:49;1.48;;;1.20;;
43652;SDS011;29249;56.078;92.850;2022-07-04T11:25:16;1.25;;;0.85;;
43652;SDS011;29249;56.078;92.850;2022-07-04T11:27:42;2.08;;;1.23;;
43652;SDS011;29249;56.078;92.850;2022-07-04T11:30:08;2.00;;;1.40;;
43652;SDS011;29249;56.078;92.850;2022-07-04T11:32:36;3.97;;;1.20;;
43652;SDS011;29249;56.078;92.850;2022-07-04T11:35:03;3.83;;;1.45;;
43652;SDS011;29249;56.078;92.850;2022-07-04T11:37:30;2.33;;;1.20;;
43652;SDS011;29249;56.078;92.850;2022-07-04T11:39:57;3.53;;;1.60;;
43652;SDS011;29249;56.078;92.850;2022-07-04T11:42:23;1.23;;;0.98;;
43652;SDS011;29249;56.078;92.850;2022-07-04T11:44:48;2.63;;;1.45;;
43652;SDS011;29249;56.078;92.850;2022-07-04T11:47:15;3.17;;;1.67;;
43652;SDS011;29249;56.078;92.850;2022-07-04T11:52:18;2.38;;;1.38;;
43652;SDS011;29249;56.078;92.850;2022-07-04T11:54:45;3.17;;;1.88;;
43652;SDS011;29249;56.078;92.850;2022-07-04T11:57:13;2.15;;;1.25;;
43652;SDS011;29249;56.078;92.850;2022-07-04T11:59:41;3.47;;;1.23;;
43652;SDS011;29249;56.078;92.850;2022-07-04T12:02:15;1.70;;;1.20;;
43652;SDS011;29249;56.078;92.850;2022-07-04T12:04:41;5.25;;;1.25;;
43652;SDS011;29249;56.078;92.850;2022-07-04T12:07:11;3.60;;;1.45;;
43652;SDS011;29249;56.078;92.850;2022-07-04T12:09:39;2.05;;;1.10;;
43652;SDS011;29249;56.078;92.850;2022-07-04T12:12:06;3.40;;;1.52;;
43652;SDS011;29249;56.078;92.850;2022-07-04T12:14:33;2.03;;;1.30;;
43652;SDS011;29249;56.078;92.850;2022-07-04T12:17:18;1.38;;;1.25;;
43652;SDS011;29249;56.078;92.850;2022-07-04T12:19:55;3.40;;;1.98;;
43652;SDS011;29249;56.078;92.850;2022-07-04T12:22:32;3.38;;;1.60;;
43652;SDS011;29249;56.078;92.850;2022-07-04T12:25:18;4.50;;;1.52;;
43652;SDS011;29249;56.078;92.850;2022-07-04T12:27:59;2.58;;;1.77;;
43652;SDS011;29249;56.078;92.850;2022-07-04T12:30:36;7.85;;;1.60;;
43652;SDS011;29249;56.078;92.850;2022-07-04T12:33:14;7.82;;;1.45;;
43652;SDS011;29249;56.078;92.850;2022-07-04T12:35:48;1.45;;;1.10;;
43652;SDS011;29249;56.078;92.850;2022-07-04T12:38:29;6.53;;;1.52;;
43652;SDS011;29249;56.078;92.850;2022-07-04T12:41:12;1.40;;;1.10;;
43652;SDS011;29249;56.078;92.850;2022-07-04T12:46:05;3.65;;;1.80;;
43652;SDS011;29249;56.078;92.850;2022-07-04T12:48:50;2.80;;;1.60;;
43652;SDS011;29249;56.078;92.850;2022-07-04T12:51:18;3.75;;;1.60;;
43652;SDS011;29249;56.078;92.850;2022-07-04T12:53:58;5.38;;;2.88;;
43652;SDS011;29249;56.078;92.850;2022-07-04T12:56:32;8.38;;;5.78;;
43652;SDS011;29249;56.078;92.850;2022-07-04T12:59:00;12.00;;;4.43;;
43652;SDS011;29249;56.078;92.850;2022-07-04T13:01:28;5.38;;;2.25;;
43652;SDS011;29249;56.078;92.850;2022-07-04T13:03:54;9.75;;;3.75;;
43652;SDS011;29249;56.078;92.850;2022-07-04T13:06:20;3.90;;;3.05;;
43652;SDS011;29249;56.078;92.850;2022-07-04T13:08:46;5.38;;;2.30;;
43652;SDS011;29249;56.078;92.850;2022-07-04T13:11:12;5.95;;;1.75;;
43652;SDS011;29249;56.078;92.850;2022-07-04T13:13:39;6.38;;;3.35;;
43652;SDS011;29249;56.078;92.850;2022-07-04T13:16:05;2.85;;;2.20;;
43652;SDS011;29249;56.078;92.850;2022-07-04T13:18:31;5.75;;;2.75;;
43652;SDS011;29249;56.078;92.850;2022-07-04T13:20:56;3.28;;;2.38;;
43652;SDS011;29249;56.078;92.850;2022-07-04T13:23:22;4.68;;;2.13;;
43652;SDS011;29249;56.078;92.850;2022-07-04T13:25:48;3.42;;;2.47;;
43652;SDS011;29249;56.078;92.850;2022-07-04T13:28:14;6.20;;;2.00;;
43652;SDS011;29249;56.078;92.850;2022-07-04T13:30:40;4.10;;;2.35;;
43652;SDS011;29249;56.078;92.850;2022-07-04T13:33:06;3.65;;;2.50;;
43652;SDS011;29249;56.078;92.850;2022-07-04T13:35:31;4.68;;;2.35;;
43652;SDS011;29249;56.078;92.850;2022-07-04T13:37:57;7.40;;;2.83;;
43652;SDS011;29249;56.078;92.850;2022-07-04T13:40:23;3.95;;;1.95;;
43652;SDS011;29249;56.078;92.850;2022-07-04T13:42:49;7.88;;;2.10;;
43652;SDS011;29249;56.078;92.850;2022-07-04T13:45:15;6.72;;;2.30;;
43652;SDS011;29249;56.078;92.850;2022-07-04T13:47:40;7.60;;;3.60;;
43652;SDS011;29249;56.078;92.850;2022-07-04T13:50:06;8.75;;;2.78;;
43652;SDS011;29249;56.078;92.850;2022-07-04T13:52:32;7.57;;;3.13;;
43652;SDS011;29249;56.078;92.850;2022-07-04T13:54:58;8.60;;;2.30;;
43652;SDS011;29249;56.078;92.850;2022-07-04T13:57:24;8.77;;;3.63;;
43652;SDS011;29249;56.078;92.850;2022-07-04T13:59:50;6.35;;;3.03;;
43652;SDS011;29249;56.078;92.850;2022-07-04T14:02:16;5.20;;;2.65;;
43652;SDS011;29249;56.078;92.850;2022-07-04T14:04:42;4.22;;;2.67;;
43652;SDS011;29249;56.078;92.850;2022-07-04T14:07:08;6.10;;;3.67;;
43652;SDS011;29249;56.078;92.850;2022-07-04T14:09:34;6.57;;;3.15;;
43652;SDS011;29249;56.078;92.850;2022-07-04T14:11:59;13.73;;;3.45;;
43652;SDS011;29249;56.078;92.850;2022-07-04T14:14:25;10.70;;;3.80;;
43652;SDS011;29249;56.078;92.850;2022-07-04T14:16:51;4.63;;;3.30;;
43652;SDS011;29249;56.078;92.850;2022-07-04T14:19:17;9.73;;;4.20;;
43652;SDS011;29249;56.078;92.850;2022-07-04T14:21:43;18.80;;;5.40;;
43652;SDS011;29249;56.078;92.850;2022-07-04T14:24:08;4.80;;;4.13;;
43652;SDS011;29249;56.078;92.850;2022-07-04T14:26:34;9.98;;;4.38;;
43652;SDS011;29249;56.078;92.850;2022-07-04T14:29:00;13.63;;;6.68;;
43652;SDS011;29249;56.078;92.850;2022-07-04T14:31:26;18.88;;;8.60;;
43652;SDS011;29249;56.078;92.850;2022-07-04T14:33:52;15.85;;;6.40;;
43652;SDS011;29249;56.078;92.850;2022-07-04T14:36:17;27.15;;;10.80;;
43652;SDS011;29249;56.078;92.850;2022-07-04T14:38:43;15.57;;;8.30;;
43652;SDS011;29249;56.078;92.850;2022-07-04T14:41:09;14.35;;;7.45;;
43652;SDS011;29249;56.078;92.850;2022-07-04T14:43:36;14.52;;;7.97;;
43652;SDS011;29249;56.078;92.850;2022-07-04T14:46:05;17.10;;;8.00;;
43652;SDS011;29249;56.078;92.850;2022-07-04T14:48:32;16.50;;;8.30;;
43652;SDS011;29249;56.078;92.850;2022-07-04T14:50:58;20.30;;;10.40;;
43652;SDS011;29249;56.078;92.850;2022-07-04T14:53:24;19.00;;;9.35;;
43652;SDS011;29249;56.078;92.850;2022-07-04T14:55:50;16.30;;;9.20;;
43652;SDS011;29249;56.078;92.850;2022-07-04T14:58:15;21.25;;;10.32;;
43652;SDS011;29249;56.078;92.850;2022-07-04T15:00:41;18.92;;;10.18;;
43652;SDS011;29249;56.078;92.850;2022-07-04T15:03:07;23.23;;;12.73;;